createdAt,value
2023-04-16T00:02:14.551Z,2.50
2023-04-16T00:04:41.869Z,3.95
2023-04-16T00:07:08.633Z,4.90
2023-04-16T00:09:35.187Z,5.80
2023-04-16T00:12:01.946Z,6.72
2023-04-16T00:14:29.576Z,9.50
2023-04-16T00:16:56.359Z,5.30
2023-04-16T00:19:22.939Z,5.93
2023-04-16T00:21:49.484Z,4.28
2023-04-16T00:24:16.142Z,7.18
2023-04-16T00:26:44.555Z,8.80
2023-04-16T00:29:11.421Z,4.50
2023-04-16T00:31:38.295Z,3.95
2023-04-16T00:34:04.935Z,7.50
2023-04-16T00:36:31.920Z,5.65
2023-04-16T00:38:58.686Z,10.20
2023-04-16T00:41:26.310Z,9.38
2023-04-16T00:43:53.327Z,8.02
2023-04-16T00:46:22.472Z,2.90
2023-04-16T00:48:50.313Z,7.50
2023-04-16T00:51:20.866Z,5.80
2023-04-16T00:53:47.986Z,6.63
2023-04-16T00:56:14.686Z,12.38
2023-04-16T00:58:41.430Z,7.55
2023-04-16T01:01:08.333Z,5.05
2023-04-16T01:03:39.733Z,5.93
2023-04-16T01:06:07.722Z,13.52
2023-04-16T01:08:34.684Z,4.72
2023-04-16T01:11:01.555Z,11.32
2023-04-16T01:13:28.293Z,6.43
2023-04-16T01:15:54.907Z,6.83
2023-04-16T01:18:22.918Z,9.35
2023-04-16T01:20:51.591Z,14.02
2023-04-16T01:23:18.858Z,10.27
2023-04-16T01:25:46.608Z,11.00
2023-04-16T01:28:13.596Z,12.83
2023-04-16T01:30:40.286Z,9.02
2023-04-16T01:33:08.229Z,9.98
2023-04-16T01:35:34.818Z,5.50
2023-04-16T01:38:01.597Z,9.93
2023-04-16T01:40:28.731Z,7.77
2023-04-16T01:42:55.504Z,5.78
2023-04-16T01:45:22.209Z,7.78
2023-04-16T01:47:51.000Z,12.50
2023-04-16T01:50:18.722Z,6.40
2023-04-16T01:52:45.941Z,5.03
2023-04-16T01:55:12.916Z,14.07
2023-04-16T01:57:42.410Z,11.73
2023-04-16T02:00:09.414Z,8.75
2023-04-16T02:02:36.541Z,16.95
2023-04-16T02:05:03.517Z,6.13
2023-04-16T02:07:31.739Z,12.15
2023-04-16T02:09:58.449Z,17.25
2023-04-16T02:12:26.245Z,11.10
2023-04-16T02:14:52.897Z,12.48
2023-04-16T02:17:19.479Z,12.30
2023-04-16T02:19:46.472Z,16.10
2023-04-16T02:22:13.198Z,15.23
2023-04-16T02:24:39.771Z,11.57
2023-04-16T02:27:06.504Z,11.90
2023-04-16T02:29:33.110Z,16.00
2023-04-16T02:31:59.944Z,10.57
2023-04-16T02:34:26.586Z,9.77
2023-04-16T02:36:54.320Z,13.35
2023-04-16T02:39:21.045Z,16.13
2023-04-16T02:41:47.611Z,13.90
2023-04-16T02:44:14.169Z,10.43
2023-04-16T02:46:41.413Z,12.88
2023-04-16T02:49:08.261Z,8.68
2023-04-16T02:51:34.996Z,20.35
2023-04-16T02:54:10.402Z,12.63
2023-04-16T02:56:37.801Z,11.60
2023-04-16T02:59:04.424Z,10.05
2023-04-16T03:01:31.082Z,13.45
2023-04-16T03:03:57.851Z,14.35
2023-04-16T03:06:24.392Z,13.63
2023-04-16T03:08:51.231Z,11.20
2023-04-16T03:11:17.888Z,9.60
2023-04-16T03:13:44.433Z,10.27
2023-04-16T03:16:11.286Z,13.43
2023-04-16T03:18:37.978Z,17.33
2023-04-16T03:21:05.083Z,20.15
2023-04-16T03:23:31.733Z,21.73
2023-04-16T03:25:58.259Z,7.38
2023-04-16T03:28:24.834Z,14.07
2023-04-16T03:30:52.766Z,11.37
2023-04-16T03:33:20.776Z,15.90
2023-04-16T03:38:41.500Z,14.45
2023-04-16T03:41:10.139Z,8.63
2023-04-16T03:43:36.915Z,16.47
2023-04-16T03:46:03.662Z,12.90
2023-04-16T03:48:30.550Z,12.15
2023-04-16T03:50:57.257Z,11.50
2023-04-16T03:53:23.915Z,12.45
2023-04-16T03:55:51.692Z,8.33
2023-04-16T03:58:18.706Z,10.10
2023-04-16T04:00:45.453Z,15.35
2023-04-16T04:03:12.262Z,12.50
2023-04-16T04:05:43.236Z,13.73
2023-04-16T04:08:09.971Z,8.27
2023-04-16T04:10:37.936Z,19.67
2023-04-16T04:13:06.414Z,12.15
2023-04-16T04:15:33.011Z,15.68
2023-04-16T04:17:59.949Z,17.25
2023-04-16T04:20:26.705Z,12.47
2023-04-16T04:22:53.297Z,15.52
2023-04-16T04:25:19.911Z,10.35
2023-04-16T04:27:46.592Z,14.07
2023-04-16T04:30:13.169Z,17.65
2023-04-16T04:32:39.883Z,16.83
2023-04-16T04:35:07.024Z,12.10
2023-04-16T04:37:33.490Z,15.43
2023-04-16T04:40:00.351Z,19.40
2023-04-16T04:42:27.317Z,14.77
2023-04-16T04:44:53.946Z,14.37
2023-04-16T04:47:20.523Z,13.10
2023-04-16T04:49:47.136Z,20.10
2023-04-16T04:52:14.209Z,16.58
2023-04-16T04:54:41.886Z,12.20
2023-04-16T04:57:08.818Z,15.70
2023-04-16T04:59:35.410Z,10.10
2023-04-16T05:02:03.632Z,14.05
2023-04-16T05:04:31.386Z,16.42
2023-04-16T05:06:57.977Z,17.38
2023-04-16T05:09:24.626Z,13.07
2023-04-16T05:11:51.362Z,15.00
2023-04-16T05:14:17.870Z,17.25
2023-04-16T05:16:44.420Z,15.02
2023-04-16T05:19:11.370Z,11.63
2023-04-16T05:21:38.164Z,13.27
2023-04-16T05:24:04.808Z,16.77
2023-04-16T05:26:31.359Z,20.05
2023-04-16T05:28:58.385Z,14.85
2023-04-16T05:31:25.223Z,12.23
2023-04-16T05:33:51.871Z,19.93
2023-04-16T05:36:18.448Z,20.90
2023-04-16T05:38:45.171Z,16.52
2023-04-16T05:44:06.321Z,20.80
2023-04-16T05:46:32.898Z,11.53
2023-04-16T05:48:59.568Z,19.75
2023-04-16T05:54:22.241Z,10.70
2023-04-16T05:56:48.996Z,13.15
2023-04-16T05:59:15.743Z,16.33
2023-04-16T06:04:37.371Z,17.63
2023-04-16T06:07:05.620Z,14.25
2023-04-16T06:09:34.767Z,18.75
2023-04-16T06:12:01.485Z,21.70
2023-04-16T06:14:28.163Z,16.42
2023-04-16T06:16:54.757Z,16.00
2023-04-16T06:19:21.481Z,13.93
2023-04-16T06:21:47.966Z,14.13
2023-04-16T06:24:14.608Z,13.50
2023-04-16T06:26:41.181Z,16.60
2023-04-16T06:29:08.013Z,15.35
2023-04-16T06:31:34.982Z,20.95
2023-04-16T06:34:02.159Z,13.93
2023-04-16T06:36:29.196Z,14.33
2023-04-16T06:38:56.083Z,19.20
2023-04-16T06:41:25.771Z,20.63
2023-04-16T06:43:52.539Z,14.20
2023-04-16T06:46:19.223Z,15.75
2023-04-16T06:48:46.294Z,19.20
2023-04-16T06:51:13.602Z,16.83
2023-04-16T06:53:40.481Z,18.55
2023-04-16T06:56:07.394Z,22.17
2023-04-16T06:58:34.123Z,15.25
2023-04-16T07:01:02.667Z,16.97
2023-04-16T07:03:29.467Z,16.23
2023-04-16T07:05:57.271Z,13.50
2023-04-16T07:08:24.769Z,13.25
2023-04-16T07:10:52.801Z,15.35
2023-04-16T07:13:19.604Z,15.03
2023-04-16T07:15:46.385Z,16.23
2023-04-16T07:18:13.010Z,12.13
2023-04-16T07:20:39.795Z,16.50
2023-04-16T07:23:06.452Z,16.98
2023-04-16T07:25:33.145Z,21.67
2023-04-16T07:27:59.729Z,13.57
2023-04-16T07:30:32.901Z,14.63
2023-04-16T07:33:00.327Z,16.48
2023-04-16T07:35:27.135Z,16.02
2023-04-16T07:37:53.782Z,16.37
2023-04-16T07:40:20.402Z,12.38
2023-04-16T07:42:47.148Z,11.55
2023-04-16T07:45:13.783Z,14.15
2023-04-16T07:47:40.653Z,17.95
2023-04-16T07:50:08.461Z,15.17
2023-04-16T07:52:35.317Z,11.68
2023-04-16T07:55:02.217Z,11.68
2023-04-16T07:57:28.854Z,14.57
2023-04-16T07:59:55.853Z,10.43
2023-04-16T08:02:22.845Z,11.67
2023-04-16T08:04:49.611Z,10.95
2023-04-16T08:07:16.522Z,12.93
2023-04-16T08:09:51.005Z,13.48
2023-04-16T08:12:23.040Z,10.50
2023-04-16T08:14:49.701Z,7.43
2023-04-16T08:17:16.740Z,9.75
2023-04-16T08:19:47.339Z,14.75
2023-04-16T08:22:19.304Z,13.52
2023-04-16T08:24:46.164Z,8.55
2023-04-16T08:27:19.337Z,11.10
2023-04-16T08:29:48.004Z,9.40
2023-04-16T08:32:14.651Z,8.50
2023-04-16T08:34:42.295Z,6.07
2023-04-16T08:37:09.638Z,8.15
2023-04-16T08:39:36.369Z,5.20
2023-04-16T08:48:12.460Z,6.03
2023-04-16T08:50:40.869Z,4.15
2023-04-16T08:56:09.848Z,5.88
2023-04-16T08:58:38.432Z,3.25
2023-04-16T09:01:06.412Z,4.28
2023-04-16T09:03:35.753Z,6.40
2023-04-16T09:06:04.643Z,6.27
2023-04-16T09:08:32.381Z,5.18
2023-04-16T09:11:36.469Z,4.45
2023-04-16T09:14:03.954Z,3.17
2023-04-16T09:16:34.200Z,5.70
2023-04-16T09:19:01.159Z,5.30
2023-04-16T09:21:28.049Z,6.20
2023-04-16T09:23:55.439Z,6.63
2023-04-16T09:26:22.714Z,6.82
2023-04-16T09:28:51.367Z,3.75
2023-04-16T09:31:24.543Z,5.73
2023-04-16T09:34:06.066Z,4.40
2023-04-16T09:36:33.689Z,5.47
2023-04-16T09:39:01.319Z,4.13
2023-04-16T09:41:33.010Z,4.70
2023-04-16T09:44:04.553Z,5.13
2023-04-16T09:46:36.243Z,5.53
2023-04-16T09:49:10.235Z,8.68
2023-04-16T09:51:49.741Z,6.22
2023-04-16T09:54:16.741Z,5.70
2023-04-16T09:56:47.090Z,3.70
2023-04-16T09:59:18.948Z,7.85
2023-04-16T10:01:47.460Z,7.07
2023-04-16T10:04:14.186Z,11.43
2023-04-16T10:06:41.104Z,9.65
2023-04-16T10:09:11.273Z,9.37
2023-04-16T10:11:38.395Z,4.38
2023-04-16T10:14:05.205Z,5.65
2023-04-16T10:16:33.035Z,5.38
2023-04-16T10:19:00.425Z,7.78
2023-04-16T10:21:34.036Z,8.90
2023-04-16T10:24:01.894Z,7.10
2023-04-16T10:26:30.138Z,11.93
2023-04-16T10:28:58.885Z,10.45
2023-04-16T10:31:27.350Z,14.02
2023-04-16T10:33:55.002Z,17.13
2023-04-16T10:36:26.702Z,12.10
2023-04-16T10:38:58.415Z,10.88
2023-04-16T10:41:26.910Z,18.75
2023-04-16T10:44:04.067Z,14.18
2023-04-16T10:46:33.757Z,16.83
2023-04-16T10:49:01.907Z,9.93
2023-04-16T10:51:33.188Z,9.70
2023-04-16T10:54:14.620Z,10.32
2023-04-16T10:56:41.336Z,11.00
2023-04-16T10:59:10.898Z,14.17
2023-04-16T11:01:42.838Z,13.85
2023-04-16T11:04:23.978Z,10.23
2023-04-16T11:07:14.971Z,10.65
2023-04-16T11:10:03.770Z,12.10
2023-04-16T11:12:35.908Z,8.90
2023-04-16T11:15:06.467Z,10.65
2023-04-16T11:17:38.927Z,8.93
2023-04-16T11:20:19.080Z,8.38
2023-04-16T11:22:54.099Z,9.63
2023-04-16T11:25:28.079Z,10.97
2023-04-16T11:27:55.050Z,5.65
2023-04-16T11:30:34.201Z,8.77
2023-04-16T11:33:11.937Z,6.10
2023-04-16T11:35:39.704Z,8.35
2023-04-16T11:38:07.709Z,7.87
2023-04-16T11:40:35.617Z,12.55
2023-04-16T11:43:16.240Z,11.35
2023-04-16T11:46:10.337Z,12.80
2023-04-16T11:48:52.698Z,13.05
2023-04-16T11:51:23.743Z,17.60
2023-04-16T11:53:53.238Z,11.48
2023-04-16T11:56:28.882Z,8.27
2023-04-16T11:59:17.126Z,8.50
2023-04-16T12:01:48.576Z,11.52
2023-04-16T12:04:16.755Z,10.20
2023-04-16T12:07:11.330Z,12.10
2023-04-16T12:09:40.745Z,11.05
2023-04-16T12:12:26.679Z,13.38
2023-04-16T12:14:54.697Z,15.45
2023-04-16T12:17:21.738Z,8.37
2023-04-16T12:19:51.093Z,6.72
2023-04-16T12:22:18.303Z,13.10
2023-04-16T12:24:44.917Z,11.80
2023-04-16T12:27:11.792Z,9.73
2023-04-16T12:29:38.779Z,10.57
2023-04-16T12:32:05.548Z,8.40
2023-04-16T12:34:49.045Z,13.40
2023-04-16T12:37:16.586Z,11.25
2023-04-16T12:39:43.221Z,14.18
2023-04-16T12:42:11.486Z,13.37
2023-04-16T12:44:38.468Z,9.75
2023-04-16T12:47:05.657Z,12.27
2023-04-16T12:49:32.419Z,14.25
2023-04-16T12:51:59.408Z,6.25
2023-04-16T12:54:29.178Z,5.53
2023-04-16T12:56:55.883Z,10.18
2023-04-16T12:59:22.672Z,9.43
2023-04-16T13:01:49.197Z,6.13
2023-04-16T13:04:17.974Z,7.55
2023-04-16T13:06:45.834Z,7.13
2023-04-16T13:09:12.562Z,6.68
2023-04-16T13:12:50.225Z,8.15
2023-04-16T13:15:18.969Z,12.50
2023-04-16T13:17:46.177Z,14.48
2023-04-16T13:20:12.970Z,8.47
2023-04-16T13:22:39.645Z,10.60
2023-04-16T13:25:06.886Z,12.75
2023-04-16T13:27:33.509Z,12.98
2023-04-16T13:30:00.188Z,12.45
2023-04-16T13:32:27.023Z,14.63
2023-04-16T13:34:53.904Z,21.58
2023-04-16T13:37:20.555Z,13.85
2023-04-16T13:39:47.637Z,14.02
2023-04-16T13:42:14.458Z,14.20
2023-04-16T13:44:41.354Z,8.20
2023-04-16T13:47:08.345Z,10.68
2023-04-16T13:49:36.150Z,9.73
2023-04-16T13:52:05.837Z,11.80
2023-04-16T13:54:32.580Z,14.48
2023-04-16T13:56:59.349Z,11.80
2023-04-16T13:59:26.645Z,10.02
2023-04-16T14:01:53.734Z,5.55
2023-04-16T14:04:22.362Z,13.25
2023-04-16T14:06:50.180Z,9.43
2023-04-16T14:09:16.750Z,8.93
2023-04-16T14:11:43.637Z,10.00
2023-04-16T14:14:10.367Z,7.07
2023-04-16T14:16:37.210Z,7.10
2023-04-16T14:19:03.998Z,12.98
2023-04-16T14:21:31.439Z,8.73
2023-04-16T14:23:57.992Z,9.70
2023-04-16T14:26:24.657Z,13.13
2023-04-16T14:28:51.373Z,7.28
2023-04-16T14:31:18.964Z,12.30
2023-04-16T14:33:46.131Z,8.53
2023-04-16T14:36:12.881Z,13.60
2023-04-16T14:38:40.466Z,13.65
2023-04-16T14:41:07.212Z,11.95
2023-04-16T14:43:34.330Z,5.63
2023-04-16T14:46:00.987Z,15.67
2023-04-16T14:48:27.815Z,7.55
2023-04-16T14:50:54.564Z,17.55
2023-04-16T14:53:24.263Z,9.25
2023-04-16T14:55:53.278Z,10.05
2023-04-16T14:58:19.820Z,11.20
2023-04-16T15:03:40.865Z,8.75
2023-04-16T15:06:08.766Z,11.20
2023-04-16T15:08:35.492Z,12.43
2023-04-16T15:11:02.096Z,15.47
2023-04-16T15:13:33.824Z,8.35
2023-04-16T15:16:01.480Z,10.07
2023-04-16T15:18:29.250Z,11.98
2023-04-16T15:20:56.188Z,7.35
2023-04-16T15:23:23.221Z,9.63
2023-04-16T15:25:57.491Z,8.38
2023-04-16T15:28:24.114Z,7.75
2023-04-16T15:33:47.457Z,8.80
2023-04-16T15:36:14.697Z,5.70
2023-04-16T15:38:41.905Z,10.05
2023-04-16T15:44:04.094Z,10.38
2023-04-16T15:46:30.930Z,11.55
2023-04-16T15:48:57.906Z,9.03
2023-04-16T15:54:19.261Z,7.57
2023-04-16T15:56:46.988Z,7.43
2023-04-16T15:59:13.844Z,6.45
2023-04-16T16:07:29.039Z,10.07
2023-04-16T16:09:58.499Z,8.82
2023-04-16T16:12:25.130Z,10.32
2023-04-16T16:14:51.991Z,7.80
2023-04-16T16:17:20.379Z,11.18
2023-04-16T16:19:47.186Z,10.27
2023-04-16T16:22:14.196Z,11.80
2023-04-16T16:24:40.802Z,16.90
2023-04-16T16:27:07.524Z,11.63
2023-04-16T16:29:34.213Z,10.82
2023-04-16T16:32:01.256Z,14.57
2023-04-16T16:34:28.335Z,15.85
2023-04-16T16:36:55.129Z,15.15
2023-04-16T16:39:24.429Z,8.33
2023-04-16T16:41:57.846Z,13.07
2023-04-16T16:44:24.528Z,15.45
2023-04-16T16:46:51.683Z,13.32
2023-04-16T16:49:18.578Z,9.60
2023-04-16T16:51:46.648Z,15.93
2023-04-16T16:54:13.489Z,14.30
2023-04-16T16:56:41.484Z,9.68
2023-04-16T16:59:09.228Z,17.15
2023-04-16T17:01:36.184Z,14.27
2023-04-16T17:04:02.908Z,13.43
2023-04-16T17:06:29.785Z,15.18
2023-04-16T17:08:56.450Z,12.43
2023-04-16T17:11:22.998Z,8.90
2023-04-16T17:13:49.636Z,14.02
2023-04-16T17:16:17.675Z,13.10
2023-04-16T17:18:45.927Z,13.10
2023-04-16T17:21:14.029Z,12.57
2023-04-16T17:23:41.770Z,12.10
2023-04-16T17:26:08.331Z,12.82
2023-04-16T17:28:35.127Z,12.03
2023-04-16T17:31:02.928Z,11.30
2023-04-16T17:33:29.718Z,13.35
2023-04-16T17:35:56.548Z,12.80
2023-04-16T17:38:23.127Z,8.38
2023-04-16T17:40:49.912Z,11.30
2023-04-16T17:43:16.675Z,12.07
2023-04-16T17:45:43.591Z,9.65
2023-04-16T17:48:10.518Z,14.50
2023-04-16T17:50:39.356Z,13.43
2023-04-16T17:53:06.430Z,7.67
2023-04-16T17:55:33.019Z,11.77
2023-04-16T17:58:07.362Z,11.90
2023-04-16T18:00:34.040Z,11.25
2023-04-16T18:03:00.835Z,14.75
2023-04-16T18:05:27.696Z,19.70
2023-04-16T18:07:55.527Z,9.00
2023-04-16T18:10:22.385Z,12.95
2023-04-16T18:12:49.112Z,17.85
2023-04-16T18:15:15.768Z,12.63
2023-04-16T18:17:42.851Z,14.57
2023-04-16T18:20:11.750Z,13.95
2023-04-16T18:22:38.385Z,11.68
2023-04-16T18:25:05.385Z,19.75
2023-04-16T18:27:32.377Z,14.02
2023-04-16T18:29:59.462Z,17.47
2023-04-16T18:32:30.857Z,15.18
2023-04-16T18:34:58.098Z,15.38
2023-04-16T18:37:24.665Z,14.00
2023-04-16T18:39:51.242Z,10.63
2023-04-16T18:42:17.777Z,17.73
2023-04-16T18:44:47.912Z,16.27
2023-04-16T18:47:14.442Z,13.82
2023-04-16T18:49:41.296Z,15.82
2023-04-16T18:52:08.126Z,21.23
2023-04-16T18:57:29.080Z,19.33
2023-04-16T18:59:55.965Z,16.17
2023-04-16T19:02:22.717Z,16.27
2023-04-16T19:04:49.386Z,15.80
2023-04-16T19:07:16.331Z,12.57
2023-04-16T19:09:43.053Z,20.92
2023-04-16T19:12:12.866Z,14.40
2023-04-16T19:14:39.748Z,19.85
2023-04-16T19:17:06.702Z,9.85
2023-04-16T19:19:33.408Z,19.73
2023-04-16T19:22:00.649Z,15.48
2023-04-16T19:24:27.541Z,11.90
2023-04-16T19:26:54.577Z,16.02
2023-04-16T19:29:21.248Z,15.63
2023-04-16T19:31:47.915Z,14.60
2023-04-16T19:34:15.793Z,16.90
2023-04-16T19:36:42.641Z,14.98
2023-04-16T19:39:09.798Z,17.92
2023-04-16T19:41:37.035Z,14.13
2023-04-16T19:44:03.883Z,13.17
2023-04-16T19:46:30.478Z,33.78
2023-04-16T19:48:57.254Z,14.63
2023-04-16T19:51:26.441Z,17.80
2023-04-16T19:53:53.507Z,16.40
2023-04-16T19:56:20.289Z,19.43
2023-04-16T19:58:47.076Z,20.05
2023-04-16T20:01:13.901Z,17.27
2023-04-16T20:03:40.534Z,20.02
2023-04-16T20:06:08.004Z,18.20
2023-04-16T20:08:34.746Z,14.77
2023-04-16T20:11:01.658Z,18.30
2023-04-16T20:13:28.617Z,19.83
2023-04-16T20:15:55.232Z,21.55
2023-04-16T20:18:22.376Z,19.45
2023-04-16T20:20:49.152Z,23.60
2023-04-16T20:23:15.665Z,16.65
2023-04-16T20:25:43.104Z,18.08
2023-04-16T20:28:10.359Z,21.88
2023-04-16T20:30:39.413Z,18.60
2023-04-16T20:33:06.820Z,20.80
2023-04-16T20:35:34.394Z,19.13
2023-04-16T20:38:01.353Z,19.70
2023-04-16T20:40:30.727Z,22.00
2023-04-16T20:43:00.215Z,25.55
2023-04-16T20:45:32.335Z,22.97
2023-04-16T20:47:59.955Z,23.33
2023-04-16T20:50:26.701Z,26.40
2023-04-16T20:52:53.308Z,25.35
2023-04-16T20:55:20.160Z,20.05
2023-04-16T20:57:47.059Z,22.57
2023-04-16T21:00:15.599Z,27.77
2023-04-16T21:02:43.128Z,23.67
2023-04-16T21:05:13.867Z,21.95
2023-04-16T21:07:41.638Z,22.88
2023-04-16T21:10:09.907Z,21.33
2023-04-16T21:12:37.476Z,30.77
2023-04-16T21:15:04.967Z,29.92
2023-04-16T21:17:31.875Z,26.30
2023-04-16T21:19:58.710Z,25.63
2023-04-16T21:22:25.728Z,29.73
2023-04-16T21:24:52.324Z,24.52
2023-04-16T21:27:18.909Z,22.65
2023-04-16T21:29:45.595Z,23.65
2023-04-16T21:32:12.257Z,27.50
2023-04-16T21:34:38.894Z,24.40
2023-04-16T21:37:05.472Z,27.92
2023-04-16T21:39:32.106Z,23.63
2023-04-16T21:41:58.794Z,17.83
2023-04-16T21:44:25.415Z,18.83
2023-04-16T21:46:52.093Z,31.13
2023-04-16T21:49:18.838Z,20.42
2023-04-16T21:51:46.347Z,21.95
2023-04-16T21:54:13.311Z,18.27
2023-04-16T21:56:39.937Z,18.25
2023-04-16T21:59:06.648Z,21.10
2023-04-16T22:01:33.514Z,19.15
2023-04-16T22:04:03.144Z,19.88
2023-04-16T22:06:29.761Z,26.60
2023-04-16T22:08:58.846Z,19.95
2023-04-16T22:11:25.446Z,21.23
2023-04-16T22:13:52.137Z,21.10
2023-04-16T22:16:18.665Z,26.20
2023-04-16T22:18:46.436Z,21.20
2023-04-16T22:21:13.098Z,24.10
2023-04-16T22:23:39.745Z,23.77
2023-04-16T22:26:06.367Z,21.20
2023-04-16T22:28:33.032Z,29.30
2023-04-16T22:30:59.797Z,28.13
2023-04-16T22:33:29.737Z,27.88
2023-04-16T22:35:56.457Z,26.47
2023-04-16T22:38:23.138Z,24.77
2023-04-16T22:40:49.849Z,22.42
2023-04-16T22:43:17.651Z,24.70
2023-04-16T22:48:40.226Z,17.90
2023-04-16T22:54:02.566Z,25.15
2023-04-16T22:56:31.168Z,25.27
2023-04-16T22:58:57.785Z,31.23
2023-04-16T23:04:18.810Z,23.55
2023-04-16T23:06:46.387Z,25.00
2023-04-16T23:09:13.542Z,25.67
2023-04-16T23:11:40.582Z,28.52
2023-04-16T23:14:08.360Z,23.67
2023-04-16T23:16:35.046Z,26.33
2023-04-16T23:19:01.588Z,31.08
2023-04-16T23:21:28.199Z,26.38
2023-04-16T23:23:55.802Z,25.35
2023-04-16T23:26:22.462Z,25.53
2023-04-16T23:28:48.975Z,35.60
2023-04-16T23:31:15.602Z,26.80
2023-04-16T23:33:42.365Z,29.80
2023-04-16T23:36:09.398Z,34.67
2023-04-16T23:38:35.882Z,31.80
2023-04-16T23:41:02.528Z,36.78
2023-04-16T23:43:29.086Z,27.02
2023-04-16T23:45:58.432Z,29.15
2023-04-16T23:48:25.257Z,32.47
2023-04-16T23:50:51.899Z,32.53
2023-04-16T23:53:18.853Z,25.10
2023-04-16T23:55:45.450Z,22.48
2023-04-16T23:58:12.038Z,26.45
